Terminal Aerodrome Forecast
Issued by NWS North Platte, NE

Home | Current Version | Previous Version | Text Only | Print | Product List | Glossary On
Versions: 1 2 3 4 5 6 7 8 9 10 11 12 13
000
FTUS43 KLBF 211100
TAFLBF
TAF
KLBF 211120Z 2112/2212 VRB02KT P6SM BKN100 OVC200
     FM211800 19007KT P6SM OVC100
     FM220000 VRB02KT P6SM SCT120=

USA.gov is the U.S. government's official web portal to all federal, state and local government web resources and services.